sensor_id;sensor_type;location;lat;lon;timestamp;P1;durP1;ratioP1;P2;durP2;ratioP2
13204;SDS011;6667;52.634;9.226;2023-03-23T07:55:15;3.70;;;2.73;;
13204;SDS011;6667;52.634;9.226;2023-03-23T07:57:43;3.93;;;2.73;;
13204;SDS011;6667;52.634;9.226;2023-03-23T08:00:10;3.80;;;2.87;;
13204;SDS011;6667;52.634;9.226;2023-03-23T08:02:40;2.87;;;2.57;;
13204;SDS011;6667;52.634;9.226;2023-03-23T08:05:07;4.80;;;2.83;;
13204;SDS011;6667;52.634;9.226;2023-03-23T08:07:35;4.33;;;2.80;;
13204;SDS011;6667;52.634;9.226;2023-03-23T08:10:02;3.03;;;2.63;;
13204;SDS011;6667;52.634;9.226;2023-03-23T08:12:30;3.80;;;2.13;;
13204;SDS011;6667;52.634;9.226;2023-03-23T08:14:57;4.00;;;2.77;;
13204;SDS011;6667;52.634;9.226;2023-03-23T08:17:24;5.60;;;2.80;;
13204;SDS011;6667;52.634;9.226;2023-03-23T08:19:51;3.00;;;2.43;;
13204;SDS011;6667;52.634;9.226;2023-03-23T08:22:17;3.47;;;2.37;;
13204;SDS011;6667;52.634;9.226;2023-03-23T08:24:46;3.73;;;2.47;;
13204;SDS011;6667;52.634;9.226;2023-03-23T08:27:13;4.97;;;2.63;;
13204;SDS011;6667;52.634;9.226;2023-03-23T08:29:41;3.37;;;2.60;;
13204;SDS011;6667;52.634;9.226;2023-03-23T08:32:10;6.47;;;2.70;;
13204;SDS011;6667;52.634;9.226;2023-03-23T08:34:37;5.63;;;2.80;;
13204;SDS011;6667;52.634;9.226;2023-03-23T08:37:04;2.93;;;2.70;;
13204;SDS011;6667;52.634;9.226;2023-03-23T08:39:31;4.70;;;2.70;;
13204;SDS011;6667;52.634;9.226;2023-03-23T08:41:58;4.17;;;2.70;;
13204;SDS011;6667;52.634;9.226;2023-03-23T08:44:26;5.90;;;3.00;;
13204;SDS011;6667;52.634;9.226;2023-03-23T08:46:54;4.30;;;2.70;;
13204;SDS011;6667;52.634;9.226;2023-03-23T08:49:22;5.23;;;2.57;;
13204;SDS011;6667;52.634;9.226;2023-03-23T08:51:49;5.23;;;2.40;;
13204;SDS011;6667;52.634;9.226;2023-03-23T08:54:16;3.07;;;2.03;;
13204;SDS011;6667;52.634;9.226;2023-03-23T08:56:44;4.33;;;2.57;;
13204;SDS011;6667;52.634;9.226;2023-03-23T08:59:11;6.17;;;2.43;;
13204;SDS011;6667;52.634;9.226;2023-03-23T09:01:38;2.90;;;2.60;;
13204;SDS011;6667;52.634;9.226;2023-03-23T09:04:06;5.30;;;2.30;;
13204;SDS011;6667;52.634;9.226;2023-03-23T09:06:34;3.30;;;2.23;;
13204;SDS011;6667;52.634;9.226;2023-03-23T09:09:01;4.33;;;2.40;;
13204;SDS011;6667;52.634;9.226;2023-03-23T09:11:31;5.70;;;2.53;;
13204;SDS011;6667;52.634;9.226;2023-03-23T09:13:59;4.20;;;2.53;;
13204;SDS011;6667;52.634;9.226;2023-03-23T09:16:26;8.03;;;3.13;;
13204;SDS011;6667;52.634;9.226;2023-03-23T09:18:53;5.17;;;2.73;;
13204;SDS011;6667;52.634;9.226;2023-03-23T09:21:23;3.73;;;2.73;;
13204;SDS011;6667;52.634;9.226;2023-03-23T09:23:50;4.23;;;2.73;;
13204;SDS011;6667;52.634;9.226;2023-03-23T09:26:17;6.77;;;3.13;;
13204;SDS011;6667;52.634;9.226;2023-03-23T09:28:45;8.83;;;2.93;;
13204;SDS011;6667;52.634;9.226;2023-03-23T09:31:11;4.33;;;2.40;;
13204;SDS011;6667;52.634;9.226;2023-03-23T09:33:38;3.37;;;2.30;;
13204;SDS011;6667;52.634;9.226;2023-03-23T09:36:05;3.87;;;3.23;;
13204;SDS011;6667;52.634;9.226;2023-03-23T09:38:39;5.77;;;3.10;;
13204;SDS011;6667;52.634;9.226;2023-03-23T09:41:09;5.27;;;2.57;;
13204;SDS011;6667;52.634;9.226;2023-03-23T09:43:46;3.63;;;2.50;;
13204;SDS011;6667;52.634;9.226;2023-03-23T09:46:29;4.77;;;2.60;;
13204;SDS011;6667;52.634;9.226;2023-03-23T09:49:08;5.87;;;3.00;;
13204;SDS011;6667;52.634;9.226;2023-03-23T09:51:40;4.43;;;1.87;;
13204;SDS011;6667;52.634;9.226;2023-03-23T09:54:13;4.23;;;1.90;;
13204;SDS011;6667;52.634;9.226;2023-03-23T09:56:45;4.10;;;1.40;;
13204;SDS011;6667;52.634;9.226;2023-03-23T09:59:15;4.03;;;1.40;;
13204;SDS011;6667;52.634;9.226;2023-03-23T10:01:46;5.47;;;1.47;;
13204;SDS011;6667;52.634;9.226;2023-03-23T10:04:18;4.17;;;1.67;;
13204;SDS011;6667;52.634;9.226;2023-03-23T10:06:52;4.30;;;1.83;;
13204;SDS011;6667;52.634;9.226;2023-03-23T10:09:26;3.20;;;1.20;;
13204;SDS011;6667;52.634;9.226;2023-03-23T10:11:57;5.57;;;1.20;;
13204;SDS011;6667;52.634;9.226;2023-03-23T10:14:43;3.47;;;1.63;;
13204;SDS011;6667;52.634;9.226;2023-03-23T10:17:23;7.53;;;1.73;;
13204;SDS011;6667;52.634;9.226;2023-03-23T10:19:59;4.97;;;1.40;;
13204;SDS011;6667;52.634;9.226;2023-03-23T10:22:38;1.83;;;1.27;;
13204;SDS011;6667;52.634;9.226;2023-03-23T10:25:14;2.73;;;1.10;;
13204;SDS011;6667;52.634;9.226;2023-03-23T10:27:45;3.40;;;1.20;;
13204;SDS011;6667;52.634;9.226;2023-03-23T10:30:19;2.43;;;0.80;;
13204;SDS011;6667;52.634;9.226;2023-03-23T10:32:50;3.23;;;1.00;;
13204;SDS011;6667;52.634;9.226;2023-03-23T10:35:20;2.67;;;0.90;;
13204;SDS011;6667;52.634;9.226;2023-03-23T10:37:52;1.30;;;1.00;;
13204;SDS011;6667;52.634;9.226;2023-03-23T10:40:24;2.57;;;1.00;;
13204;SDS011;6667;52.634;9.226;2023-03-23T10:42:54;2.30;;;1.17;;
13204;SDS011;6667;52.634;9.226;2023-03-23T10:45:24;1.97;;;0.93;;
13204;SDS011;6667;52.634;9.226;2023-03-23T10:47:55;3.27;;;1.03;;
13204;SDS011;6667;52.634;9.226;2023-03-23T10:50:25;3.30;;;1.10;;
13204;SDS011;6667;52.634;9.226;2023-03-23T10:52:56;2.67;;;1.30;;
13204;SDS011;6667;52.634;9.226;2023-03-23T10:55:35;2.97;;;1.40;;
13204;SDS011;6667;52.634;9.226;2023-03-23T10:58:04;3.13;;;1.30;;
13204;SDS011;6667;52.634;9.226;2023-03-23T11:00:33;5.30;;;1.50;;
13204;SDS011;6667;52.634;9.226;2023-03-23T11:03:20;4.97;;;1.67;;
13204;SDS011;6667;52.634;9.226;2023-03-23T11:05:51;4.13;;;1.70;;
13204;SDS011;6667;52.634;9.226;2023-03-23T11:08:22;2.97;;;1.50;;
13204;SDS011;6667;52.634;9.226;2023-03-23T11:10:53;5.77;;;1.70;;
13204;SDS011;6667;52.634;9.226;2023-03-23T11:13:23;3.87;;;1.30;;
13204;SDS011;6667;52.634;9.226;2023-03-23T11:15:55;2.47;;;1.33;;
13204;SDS011;6667;52.634;9.226;2023-03-23T11:18:26;1.73;;;1.13;;
13204;SDS011;6667;52.634;9.226;2023-03-23T11:21:03;2.07;;;1.30;;
13204;SDS011;6667;52.634;9.226;2023-03-23T11:23:32;2.13;;;1.43;;
13204;SDS011;6667;52.634;9.226;2023-03-23T11:26:03;3.07;;;1.40;;
13204;SDS011;6667;52.634;9.226;2023-03-23T11:28:35;3.30;;;2.20;;
13204;SDS011;6667;52.634;9.226;2023-03-23T11:31:08;3.33;;;1.80;;
13204;SDS011;6667;52.634;9.226;2023-03-23T11:33:36;4.07;;;1.90;;
13204;SDS011;6667;52.634;9.226;2023-03-23T11:36:05;2.40;;;1.60;;
13204;SDS011;6667;52.634;9.226;2023-03-23T11:38:33;1.60;;;1.43;;
13204;SDS011;6667;52.634;9.226;2023-03-23T11:41:08;1.43;;;1.00;;
13204;SDS011;6667;52.634;9.226;2023-03-23T11:43:38;1.53;;;1.00;;
13204;SDS011;6667;52.634;9.226;2023-03-23T11:46:09;1.07;;;1.00;;
13204;SDS011;6667;52.634;9.226;2023-03-23T11:48:43;2.17;;;1.00;;
13204;SDS011;6667;52.634;9.226;2023-03-23T11:51:17;1.17;;;1.00;;
13204;SDS011;6667;52.634;9.226;2023-03-23T11:53:48;1.50;;;1.00;;
13204;SDS011;6667;52.634;9.226;2023-03-23T11:56:23;3.60;;;1.00;;
13204;SDS011;6667;52.634;9.226;2023-03-23T11:58:52;1.90;;;1.23;;
13204;SDS011;6667;52.634;9.226;2023-03-23T12:01:22;1.40;;;1.13;;
13204;SDS011;6667;52.634;9.226;2023-03-23T12:06:54;3.73;;;1.10;;
13204;SDS011;6667;52.634;9.226;2023-03-23T12:09:32;1.63;;;1.00;;
13204;SDS011;6667;52.634;9.226;2023-03-23T12:12:10;1.00;;;0.87;;
13204;SDS011;6667;52.634;9.226;2023-03-23T12:14:44;1.97;;;0.87;;
13204;SDS011;6667;52.634;9.226;2023-03-23T12:17:20;0.87;;;0.80;;
13204;SDS011;6667;52.634;9.226;2023-03-23T12:20:00;0.97;;;0.90;;
13204;SDS011;6667;52.634;9.226;2023-03-23T12:22:42;1.60;;;1.17;;
13204;SDS011;6667;52.634;9.226;2023-03-23T12:25:19;1.37;;;1.10;;
13204;SDS011;6667;52.634;9.226;2023-03-23T12:28:03;0.90;;;0.90;;
13204;SDS011;6667;52.634;9.226;2023-03-23T12:30:39;2.50;;;1.00;;
13204;SDS011;6667;52.634;9.226;2023-03-23T12:33:16;1.80;;;1.50;;
13204;SDS011;6667;52.634;9.226;2023-03-23T12:35:49;3.10;;;1.10;;
13204;SDS011;6667;52.634;9.226;2023-03-23T12:38:33;2.57;;;1.40;;
13204;SDS011;6667;52.634;9.226;2023-03-23T12:41:15;1.90;;;1.07;;
13204;SDS011;6667;52.634;9.226;2023-03-23T12:43:48;1.80;;;1.20;;
13204;SDS011;6667;52.634;9.226;2023-03-23T12:46:31;2.03;;;1.30;;
13204;SDS011;6667;52.634;9.226;2023-03-23T12:49:22;2.37;;;1.40;;
13204;SDS011;6667;52.634;9.226;2023-03-23T12:51:55;1.80;;;1.30;;
13204;SDS011;6667;52.634;9.226;2023-03-23T12:54:28;2.93;;;1.70;;
13204;SDS011;6667;52.634;9.226;2023-03-23T12:57:01;3.87;;;1.40;;
13204;SDS011;6667;52.634;9.226;2023-03-23T12:59:38;2.37;;;1.40;;
13204;SDS011;6667;52.634;9.226;2023-03-23T13:02:12;2.67;;;1.83;;
13204;SDS011;6667;52.634;9.226;2023-03-23T13:04:46;2.50;;;1.30;;
13204;SDS011;6667;52.634;9.226;2023-03-23T13:07:17;1.63;;;1.40;;
13204;SDS011;6667;52.634;9.226;2023-03-23T13:09:49;2.63;;;1.00;;
13204;SDS011;6667;52.634;9.226;2023-03-23T13:12:19;0.77;;;0.67;;
13204;SDS011;6667;52.634;9.226;2023-03-23T13:14:54;4.83;;;2.07;;
13204;SDS011;6667;52.634;9.226;2023-03-23T13:17:28;3.67;;;1.13;;
13204;SDS011;6667;52.634;9.226;2023-03-23T13:20:08;0.63;;;0.50;;
13204;SDS011;6667;52.634;9.226;2023-03-23T13:22:58;2.30;;;0.80;;
13204;SDS011;6667;52.634;9.226;2023-03-23T13:25:36;2.43;;;0.80;;
13204;SDS011;6667;52.634;9.226;2023-03-23T13:28:14;2.03;;;0.73;;
13204;SDS011;6667;52.634;9.226;2023-03-23T13:30:53;3.70;;;1.00;;
13204;SDS011;6667;52.634;9.226;2023-03-23T13:33:25;3.10;;;0.97;;
13204;SDS011;6667;52.634;9.226;2023-03-23T13:35:56;1.53;;;0.73;;
13204;SDS011;6667;52.634;9.226;2023-03-23T13:38:30;1.57;;;0.80;;
13204;SDS011;6667;52.634;9.226;2023-03-23T13:40:58;2.30;;;0.70;;
13204;SDS011;6667;52.634;9.226;2023-03-23T13:43:35;2.43;;;0.60;;
13204;SDS011;6667;52.634;9.226;2023-03-23T13:46:09;1.83;;;0.80;;
13204;SDS011;6667;52.634;9.226;2023-03-23T13:48:39;1.90;;;0.77;;
13204;SDS011;6667;52.634;9.226;2023-03-23T13:51:23;0.77;;;0.67;;
13204;SDS011;6667;52.634;9.226;2023-03-23T13:54:04;1.63;;;0.60;;
13204;SDS011;6667;52.634;9.226;2023-03-23T13:56:35;1.67;;;0.80;;
13204;SDS011;6667;52.634;9.226;2023-03-23T13:59:06;1.80;;;1.30;;
13204;SDS011;6667;52.634;9.226;2023-03-23T14:01:36;0.97;;;0.73;;
13204;SDS011;6667;52.634;9.226;2023-03-23T14:04:06;3.70;;;1.03;;
13204;SDS011;6667;52.634;9.226;2023-03-23T14:06:36;2.17;;;0.67;;
13204;SDS011;6667;52.634;9.226;2023-03-23T14:09:04;1.50;;;0.77;;
13204;SDS011;6667;52.634;9.226;2023-03-23T14:11:34;0.93;;;0.70;;
13204;SDS011;6667;52.634;9.226;2023-03-23T14:14:14;1.93;;;0.80;;
13204;SDS011;6667;52.634;9.226;2023-03-23T14:16:44;2.93;;;0.90;;
13204;SDS011;6667;52.634;9.226;2023-03-23T14:19:17;1.27;;;0.93;;
13204;SDS011;6667;52.634;9.226;2023-03-23T14:21:49;2.00;;;0.97;;
13204;SDS011;6667;52.634;9.226;2023-03-23T14:24:19;3.27;;;1.20;;
13204;SDS011;6667;52.634;9.226;2023-03-23T14:26:48;1.90;;;0.80;;
13204;SDS011;6667;52.634;9.226;2023-03-23T14:29:17;1.13;;;0.80;;
13204;SDS011;6667;52.634;9.226;2023-03-23T14:31:47;1.37;;;0.70;;
13204;SDS011;6667;52.634;9.226;2023-03-23T14:34:19;2.50;;;0.97;;
13204;SDS011;6667;52.634;9.226;2023-03-23T14:36:47;3.63;;;0.97;;
13204;SDS011;6667;52.634;9.226;2023-03-23T14:39:17;2.27;;;0.93;;
13204;SDS011;6667;52.634;9.226;2023-03-23T14:41:46;2.07;;;0.83;;
13204;SDS011;6667;52.634;9.226;2023-03-23T14:44:15;4.67;;;1.00;;
13204;SDS011;6667;52.634;9.226;2023-03-23T14:46:44;3.33;;;1.00;;
13204;SDS011;6667;52.634;9.226;2023-03-23T14:49:14;3.13;;;1.17;;
13204;SDS011;6667;52.634;9.226;2023-03-23T14:51:48;1.43;;;0.90;;
13204;SDS011;6667;52.634;9.226;2023-03-23T14:54:20;1.87;;;0.83;;
13204;SDS011;6667;52.634;9.226;2023-03-23T14:56:48;3.40;;;0.90;;
13204;SDS011;6667;52.634;9.226;2023-03-23T14:59:15;3.17;;;1.30;;
13204;SDS011;6667;52.634;9.226;2023-03-23T15:01:41;2.90;;;1.40;;
13204;SDS011;6667;52.634;9.226;2023-03-23T15:04:12;2.43;;;1.40;;
13204;SDS011;6667;52.634;9.226;2023-03-23T15:06:44;1.90;;;1.10;;
13204;SDS011;6667;52.634;9.226;2023-03-23T15:09:15;2.57;;;1.13;;
13204;SDS011;6667;52.634;9.226;2023-03-23T15:11:50;3.33;;;1.30;;
13204;SDS011;6667;52.634;9.226;2023-03-23T15:14:20;3.77;;;1.57;;
13204;SDS011;6667;52.634;9.226;2023-03-23T15:16:49;3.37;;;1.23;;
13204;SDS011;6667;52.634;9.226;2023-03-23T15:19:19;5.07;;;1.20;;
13204;SDS011;6667;52.634;9.226;2023-03-23T15:21:50;1.73;;;1.10;;
13204;SDS011;6667;52.634;9.226;2023-03-23T15:24:27;2.17;;;1.10;;
13204;SDS011;6667;52.634;9.226;2023-03-23T15:27:03;3.43;;;1.47;;
13204;SDS011;6667;52.634;9.226;2023-03-23T15:29:45;2.33;;;1.10;;
13204;SDS011;6667;52.634;9.226;2023-03-23T15:32:13;1.80;;;1.57;;
13204;SDS011;6667;52.634;9.226;2023-03-23T15:34:48;2.80;;;1.20;;
13204;SDS011;6667;52.634;9.226;2023-03-23T15:37:18;1.77;;;1.23;;
13204;SDS011;6667;52.634;9.226;2023-03-23T15:39:46;2.77;;;1.47;;
13204;SDS011;6667;52.634;9.226;2023-03-23T15:42:24;4.40;;;1.70;;
13204;SDS011;6667;52.634;9.226;2023-03-23T15:47:46;4.80;;;2.00;;
13204;SDS011;6667;52.634;9.226;2023-03-23T15:50:16;3.93;;;2.23;;
13204;SDS011;6667;52.634;9.226;2023-03-23T15:52:45;2.07;;;1.87;;
13204;SDS011;6667;52.634;9.226;2023-03-23T15:55:18;2.67;;;2.30;;
13204;SDS011;6667;52.634;9.226;2023-03-23T15:57:50;3.67;;;2.37;;
13204;SDS011;6667;52.634;9.226;2023-03-23T16:00:18;2.40;;;2.07;;
13204;SDS011;6667;52.634;9.226;2023-03-23T16:02:48;2.60;;;2.40;;
13204;SDS011;6667;52.634;9.226;2023-03-23T16:05:20;2.63;;;2.30;;
13204;SDS011;6667;52.634;9.226;2023-03-23T16:07:46;4.57;;;2.47;;
13204;SDS011;6667;52.634;9.226;2023-03-23T16:10:14;2.33;;;2.13;;
13204;SDS011;6667;52.634;9.226;2023-03-23T16:12:43;2.80;;;2.40;;
13204;SDS011;6667;52.634;9.226;2023-03-23T16:15:10;2.90;;;2.60;;
13204;SDS011;6667;52.634;9.226;2023-03-23T16:17:37;3.87;;;3.10;;
13204;SDS011;6667;52.634;9.226;2023-03-23T16:20:09;3.83;;;2.50;;
13204;SDS011;6667;52.634;9.226;2023-03-23T16:22:39;2.50;;;2.30;;
13204;SDS011;6667;52.634;9.226;2023-03-23T16:25:06;3.30;;;2.53;;
13204;SDS011;6667;52.634;9.226;2023-03-23T16:27:34;3.80;;;2.87;;
13204;SDS011;6667;52.634;9.226;2023-03-23T16:30:01;4.47;;;2.90;;
13204;SDS011;6667;52.634;9.226;2023-03-23T16:32:35;4.17;;;2.63;;
13204;SDS011;6667;52.634;9.226;2023-03-23T16:35:01;3.87;;;2.63;;
13204;SDS011;6667;52.634;9.226;2023-03-23T16:37:28;4.07;;;3.07;;
13204;SDS011;6667;52.634;9.226;2023-03-23T16:39:58;3.37;;;2.83;;
13204;SDS011;6667;52.634;9.226;2023-03-23T16:42:25;4.30;;;2.50;;
13204;SDS011;6667;52.634;9.226;2023-03-23T16:44:52;3.37;;;2.33;;
13204;SDS011;6667;52.634;9.226;2023-03-23T16:47:19;5.77;;;2.70;;
13204;SDS011;6667;52.634;9.226;2023-03-23T16:49:47;4.63;;;2.77;;
13204;SDS011;6667;52.634;9.226;2023-03-23T16:52:15;4.27;;;3.17;;
13204;SDS011;6667;52.634;9.226;2023-03-23T16:54:42;3.93;;;2.97;;
13204;SDS011;6667;52.634;9.226;2023-03-23T16:57:10;3.80;;;3.20;;
13204;SDS011;6667;52.634;9.226;2023-03-23T16:59:37;4.43;;;2.80;;
13204;SDS011;6667;52.634;9.226;2023-03-23T17:02:03;2.57;;;1.87;;
13204;SDS011;6667;52.634;9.226;2023-03-23T17:04:30;4.00;;;1.37;;
13204;SDS011;6667;52.634;9.226;2023-03-23T17:06:58;3.63;;;1.83;;
13204;SDS011;6667;52.634;9.226;2023-03-23T17:09:25;2.67;;;1.73;;
13204;SDS011;6667;52.634;9.226;2023-03-23T17:11:52;2.13;;;1.50;;
13204;SDS011;6667;52.634;9.226;2023-03-23T17:14:20;4.50;;;2.27;;
13204;SDS011;6667;52.634;9.226;2023-03-23T17:16:47;5.13;;;2.60;;
13204;SDS011;6667;52.634;9.226;2023-03-23T17:19:14;2.80;;;1.97;;
13204;SDS011;6667;52.634;9.226;2023-03-23T17:21:41;3.43;;;1.60;;
13204;SDS011;6667;52.634;9.226;2023-03-23T17:24:08;3.07;;;1.50;;
13204;SDS011;6667;52.634;9.226;2023-03-23T17:26:35;4.23;;;1.97;;
13204;SDS011;6667;52.634;9.226;2023-03-23T17:29:02;3.70;;;2.57;;
13204;SDS011;6667;52.634;9.226;2023-03-23T17:31:30;2.97;;;2.27;;
13204;SDS011;6667;52.634;9.226;2023-03-23T17:33:56;2.80;;;2.17;;
13204;SDS011;6667;52.634;9.226;2023-03-23T17:36:23;2.20;;;1.83;;
13204;SDS011;6667;52.634;9.226;2023-03-23T17:38:50;3.77;;;2.50;;
13204;SDS011;6667;52.634;9.226;2023-03-23T17:41:17;5.27;;;3.90;;
13204;SDS011;6667;52.634;9.226;2023-03-23T17:43:45;5.83;;;4.03;;
13204;SDS011;6667;52.634;9.226;2023-03-23T17:46:12;4.80;;;3.77;;
13204;SDS011;6667;52.634;9.226;2023-03-23T17:48:40;5.50;;;4.13;;
13204;SDS011;6667;52.634;9.226;2023-03-23T17:51:07;3.53;;;3.03;;
13204;SDS011;6667;52.634;9.226;2023-03-23T17:53:34;5.47;;;3.43;;
13204;SDS011;6667;52.634;9.226;2023-03-23T17:56:01;6.00;;;4.00;;
13204;SDS011;6667;52.634;9.226;2023-03-23T17:58:29;6.70;;;4.43;;
13204;SDS011;6667;52.634;9.226;2023-03-23T18:00:56;6.27;;;4.93;;
13204;SDS011;6667;52.634;9.226;2023-03-23T18:03:23;8.90;;;5.03;;
13204;SDS011;6667;52.634;9.226;2023-03-23T18:05:56;6.97;;;5.03;;
13204;SDS011;6667;52.634;9.226;2023-03-23T18:08:23;6.00;;;5.37;;
13204;SDS011;6667;52.634;9.226;2023-03-23T18:10:51;7.70;;;6.17;;
13204;SDS011;6667;52.634;9.226;2023-03-23T18:13:20;5.97;;;5.37;;
13204;SDS011;6667;52.634;9.226;2023-03-23T18:15:46;7.63;;;6.30;;
13204;SDS011;6667;52.634;9.226;2023-03-23T18:18:14;7.70;;;6.57;;
13204;SDS011;6667;52.634;9.226;2023-03-23T18:20:40;9.33;;;5.90;;
13204;SDS011;6667;52.634;9.226;2023-03-23T18:23:08;7.20;;;5.80;;
13204;SDS011;6667;52.634;9.226;2023-03-23T18:25:36;7.77;;;5.43;;
13204;SDS011;6667;52.634;9.226;2023-03-23T18:28:03;6.60;;;5.30;;
13204;SDS011;6667;52.634;9.226;2023-03-23T18:30:30;7.03;;;4.90;;
13204;SDS011;6667;52.634;9.226;2023-03-23T18:32:57;6.07;;;4.93;;
13204;SDS011;6667;52.634;9.226;2023-03-23T18:35:24;6.13;;;4.23;;
13204;SDS011;6667;52.634;9.226;2023-03-23T18:37:51;5.03;;;4.30;;
13204;SDS011;6667;52.634;9.226;2023-03-23T18:40:19;5.97;;;4.93;;
13204;SDS011;6667;52.634;9.226;2023-03-23T18:42:45;8.33;;;5.63;;
13204;SDS011;6667;52.634;9.226;2023-03-23T18:45:13;6.83;;;4.53;;
13204;SDS011;6667;52.634;9.226;2023-03-23T18:47:39;5.33;;;4.60;;
13204;SDS011;6667;52.634;9.226;2023-03-23T18:50:08;4.60;;;4.07;;
13204;SDS011;6667;52.634;9.226;2023-03-23T18:52:35;6.83;;;4.60;;
13204;SDS011;6667;52.634;9.226;2023-03-23T18:55:02;6.17;;;4.23;;
13204;SDS011;6667;52.634;9.226;2023-03-23T18:57:31;7.17;;;4.50;;
13204;SDS011;6667;52.634;9.226;2023-03-23T18:59:57;6.50;;;4.37;;
13204;SDS011;6667;52.634;9.226;2023-03-23T19:02:24;6.90;;;5.00;;
13204;SDS011;6667;52.634;9.226;2023-03-23T19:04:51;6.67;;;4.20;;
13204;SDS011;6667;52.634;9.226;2023-03-23T19:07:21;8.40;;;4.23;;
13204;SDS011;6667;52.634;9.226;2023-03-23T19:09:48;11.47;;;5.30;;
13204;SDS011;6667;52.634;9.226;2023-03-23T19:12:14;4.90;;;4.40;;
13204;SDS011;6667;52.634;9.226;2023-03-23T19:14:42;6.50;;;5.67;;
13204;SDS011;6667;52.634;9.226;2023-03-23T19:17:09;10.90;;;6.60;;
13204;SDS011;6667;52.634;9.226;2023-03-23T19:19:36;8.80;;;5.67;;
13204;SDS011;6667;52.634;9.226;2023-03-23T19:22:05;8.97;;;5.23;;
13204;SDS011;6667;52.634;9.226;2023-03-23T19:24:32;6.77;;;5.20;;
13204;SDS011;6667;52.634;9.226;2023-03-23T19:27:00;6.60;;;4.40;;
13204;SDS011;6667;52.634;9.226;2023-03-23T19:29:27;6.80;;;4.37;;
13204;SDS011;6667;52.634;9.226;2023-03-23T19:31:55;6.00;;;4.03;;
13204;SDS011;6667;52.634;9.226;2023-03-23T19:34:23;5.83;;;5.13;;
13204;SDS011;6667;52.634;9.226;2023-03-23T19:36:50;4.43;;;4.03;;
13204;SDS011;6667;52.634;9.226;2023-03-23T19:39:17;7.03;;;4.27;;
13204;SDS011;6667;52.634;9.226;2023-03-23T19:41:44;5.77;;;4.20;;
13204;SDS011;6667;52.634;9.226;2023-03-23T19:44:10;9.30;;;4.20;;
13204;SDS011;6667;52.634;9.226;2023-03-23T19:46:37;6.07;;;4.40;;
13204;SDS011;6667;52.634;9.226;2023-03-23T19:49:05;6.67;;;4.17;;
13204;SDS011;6667;52.634;9.226;2023-03-23T19:51:32;6.00;;;4.53;;
13204;SDS011;6667;52.634;9.226;2023-03-23T19:53:59;5.70;;;3.90;;
13204;SDS011;6667;52.634;9.226;2023-03-23T19:56:43;6.73;;;4.07;;
13204;SDS011;6667;52.634;9.226;2023-03-23T19:59:11;3.93;;;3.53;;
13204;SDS011;6667;52.634;9.226;2023-03-23T20:01:40;6.20;;;4.27;;
13204;SDS011;6667;52.634;9.226;2023-03-23T20:04:10;6.73;;;4.10;;
13204;SDS011;6667;52.634;9.226;2023-03-23T20:06:37;6.10;;;4.60;;
13204;SDS011;6667;52.634;9.226;2023-03-23T20:09:04;4.80;;;3.93;;
13204;SDS011;6667;52.634;9.226;2023-03-23T20:11:31;5.30;;;3.67;;
13204;SDS011;6667;52.634;9.226;2023-03-23T20:13:58;8.13;;;4.43;;
13204;SDS011;6667;52.634;9.226;2023-03-23T20:16:25;5.10;;;4.27;;
13204;SDS011;6667;52.634;9.226;2023-03-23T20:18:52;4.80;;;3.73;;
13204;SDS011;6667;52.634;9.226;2023-03-23T20:21:21;5.57;;;3.67;;
13204;SDS011;6667;52.634;9.226;2023-03-23T20:23:50;6.10;;;3.33;;
13204;SDS011;6667;52.634;9.226;2023-03-23T20:26:18;6.87;;;3.53;;
13204;SDS011;6667;52.634;9.226;2023-03-23T20:28:46;3.93;;;3.47;;
13204;SDS011;6667;52.634;9.226;2023-03-23T20:31:14;8.90;;;4.43;;
13204;SDS011;6667;52.634;9.226;2023-03-23T20:33:42;4.70;;;3.37;;
13204;SDS011;6667;52.634;9.226;2023-03-23T20:36:10;4.93;;;3.20;;
13204;SDS011;6667;52.634;9.226;2023-03-23T20:38:40;6.10;;;2.93;;
13204;SDS011;6667;52.634;9.226;2023-03-23T20:41:08;4.90;;;3.17;;
13204;SDS011;6667;52.634;9.226;2023-03-23T20:43:36;4.53;;;2.93;;
13204;SDS011;6667;52.634;9.226;2023-03-23T20:46:04;6.07;;;2.93;;
13204;SDS011;6667;52.634;9.226;2023-03-23T20:48:32;5.57;;;3.00;;
13204;SDS011;6667;52.634;9.226;2023-03-23T20:51:02;5.27;;;2.63;;
13204;SDS011;6667;52.634;9.226;2023-03-23T20:53:32;6.33;;;2.63;;
13204;SDS011;6667;52.634;9.226;2023-03-23T20:56:02;4.63;;;2.57;;
13204;SDS011;6667;52.634;9.226;2023-03-23T20:58:30;4.87;;;2.97;;
13204;SDS011;6667;52.634;9.226;2023-03-23T21:00:59;4.27;;;3.07;;
13204;SDS011;6667;52.634;9.226;2023-03-23T21:03:32;3.53;;;2.63;;
13204;SDS011;6667;52.634;9.226;2023-03-23T21:06:02;4.63;;;2.77;;
13204;SDS011;6667;52.634;9.226;2023-03-23T21:08:31;4.33;;;2.47;;
13204;SDS011;6667;52.634;9.226;2023-03-23T21:11:01;4.50;;;2.83;;
13204;SDS011;6667;52.634;9.226;2023-03-23T21:13:29;3.10;;;2.63;;
13204;SDS011;6667;52.634;9.226;2023-03-23T21:15:56;6.60;;;3.10;;
13204;SDS011;6667;52.634;9.226;2023-03-23T21:18:23;6.57;;;2.83;;
13204;SDS011;6667;52.634;9.226;2023-03-23T21:20:49;4.87;;;3.33;;
13204;SDS011;6667;52.634;9.226;2023-03-23T21:23:16;7.10;;;3.07;;
13204;SDS011;6667;52.634;9.226;2023-03-23T21:25:44;6.43;;;2.77;;
13204;SDS011;6667;52.634;9.226;2023-03-23T21:28:13;6.30;;;2.90;;
13204;SDS011;6667;52.634;9.226;2023-03-23T21:30:41;6.37;;;3.33;;
13204;SDS011;6667;52.634;9.226;2023-03-23T21:33:09;6.77;;;3.23;;
13204;SDS011;6667;52.634;9.226;2023-03-23T21:35:37;5.93;;;2.80;;
13204;SDS011;6667;52.634;9.226;2023-03-23T21:38:05;4.80;;;2.50;;
13204;SDS011;6667;52.634;9.226;2023-03-23T21:40:38;3.90;;;2.43;;
13204;SDS011;6667;52.634;9.226;2023-03-23T21:43:06;6.00;;;2.20;;
13204;SDS011;6667;52.634;9.226;2023-03-23T21:45:40;5.10;;;2.40;;
13204;SDS011;6667;52.634;9.226;2023-03-23T21:48:07;3.83;;;2.00;;
13204;SDS011;6667;52.634;9.226;2023-03-23T21:50:34;3.77;;;2.57;;
13204;SDS011;6667;52.634;9.226;2023-03-23T21:53:02;3.80;;;2.70;;
13204;SDS011;6667;52.634;9.226;2023-03-23T21:55:30;3.83;;;2.43;;
13204;SDS011;6667;52.634;9.226;2023-03-23T21:57:58;3.77;;;2.27;;
13204;SDS011;6667;52.634;9.226;2023-03-23T22:00:26;4.77;;;2.07;;
13204;SDS011;6667;52.634;9.226;2023-03-23T22:02:55;2.43;;;2.20;;
13204;SDS011;6667;52.634;9.226;2023-03-23T22:05:21;3.73;;;2.03;;
13204;SDS011;6667;52.634;9.226;2023-03-23T22:07:48;4.03;;;2.43;;
13204;SDS011;6667;52.634;9.226;2023-03-23T22:10:18;3.33;;;2.20;;
13204;SDS011;6667;52.634;9.226;2023-03-23T22:12:45;2.77;;;1.60;;
13204;SDS011;6667;52.634;9.226;2023-03-23T22:15:14;3.70;;;1.87;;
13204;SDS011;6667;52.634;9.226;2023-03-23T22:17:41;3.17;;;1.87;;
13204;SDS011;6667;52.634;9.226;2023-03-23T22:20:11;2.67;;;1.97;;
13204;SDS011;6667;52.634;9.226;2023-03-23T22:22:38;4.27;;;1.97;;
13204;SDS011;6667;52.634;9.226;2023-03-23T22:25:05;5.23;;;2.00;;
13204;SDS011;6667;52.634;9.226;2023-03-23T22:27:32;4.20;;;1.70;;
13204;SDS011;6667;52.634;9.226;2023-03-23T22:29:59;1.93;;;1.63;;
13204;SDS011;6667;52.634;9.226;2023-03-23T22:32:26;4.17;;;1.67;;
13204;SDS011;6667;52.634;9.226;2023-03-23T22:34:53;2.20;;;1.50;;
13204;SDS011;6667;52.634;9.226;2023-03-23T22:37:21;7.10;;;2.00;;
13204;SDS011;6667;52.634;9.226;2023-03-23T22:39:48;2.33;;;1.67;;
13204;SDS011;6667;52.634;9.226;2023-03-23T22:42:15;2.53;;;1.63;;
13204;SDS011;6667;52.634;9.226;2023-03-23T22:44:42;4.70;;;1.83;;
13204;SDS011;6667;52.634;9.226;2023-03-23T22:47:09;2.70;;;1.67;;
13204;SDS011;6667;52.634;9.226;2023-03-23T22:49:36;4.50;;;1.70;;
13204;SDS011;6667;52.634;9.226;2023-03-23T22:52:03;4.03;;;2.17;;
